Time;durP1;ratioP1;P1;durP2;ratioP2;P2;SDS_P1;SDS_P2;PMS_P1;PMS_P2;Temp;Humidity;BMP_temperature;BMP_pressure;BME280_temperature;BME280_humidity;BME280_pressure;Samples;Min_cycle;Max_cycle;Signal;HPM_P1;HPM_P2
2021/04/05 00:00:59;;;;;;;2.70;1.05;;;8.40;37.10;;;;;;2370154;53;20980;-61
2021/04/05 00:03:28;;;;;;;3.30;1.27;;;8.40;37.20;;;;;;2361734;53;20978;-62
2021/04/05 00:05:54;;;;;;;3.53;1.30;;;8.40;37.20;;;;;;2333594;54;20929;-61
2021/04/05 00:08:21;;;;;;;2.35;1.20;;;8.40;37.30;;;;;;2355438;53;21013;-61
2021/04/05 00:10:50;;;;;;;3.92;1.35;;;8.40;37.30;;;;;;2361106;53;20935;-61
2021/04/05 00:13:20;;;;;;;3.47;1.27;;;8.40;37.40;;;;;;2619983;52;20897;-61
2021/04/05 00:15:46;;;;;;;3.87;1.40;;;8.40;37.40;;;;;;2367569;53;20893;-61
2021/04/05 00:18:14;;;;;;;3.58;1.30;;;8.40;37.30;;;;;;2367192;53;21489;-61
2021/04/05 00:20:50;;;;;;;4.00;1.42;;;8.40;37.40;;;;;;2351377;53;20971;-61
2021/04/05 00:23:17;;;;;;;3.95;1.60;;;8.40;37.50;;;;;;2618780;52;20897;-61
2021/04/05 00:25:43;;;;;;;2.70;1.15;;;8.40;37.50;;;;;;2367823;53;20913;-61
2021/04/05 00:28:10;;;;;;;4.68;1.45;;;8.40;38.10;;;;;;2367313;53;20929;-61
2021/04/05 00:30:37;;;;;;;4.18;1.40;;;8.40;37.50;;;;;;2619702;52;20909;-61
2021/04/05 00:33:04;;;;;;;3.30;1.23;;;8.40;37.50;;;;;;2360447;53;21017;-62
2021/04/05 00:35:32;;;;;;;3.03;1.37;;;8.40;37.50;;;;;;2363576;53;20897;-61
2021/04/05 00:37:59;;;;;;;3.70;1.25;;;8.50;37.70;;;;;;2595683;52;20921;-63
2021/04/05 00:40:28;;;;;;;3.90;1.30;;;8.50;37.70;;;;;;2367636;53;20885;-61
2021/04/05 00:42:54;;;;;;;3.50;1.12;;;8.50;37.70;;;;;;2368128;53;20898;-64
2021/04/05 00:45:21;;;;;;;4.53;1.17;;;8.50;37.70;;;;;;2354660;53;20855;-62
2021/04/05 00:47:53;;;;;;;4.15;1.27;;;8.50;37.70;;;;;;2365595;53;21295;-62
2021/04/05 00:50:38;;;;;;;3.90;1.42;;;8.50;37.90;;;;;;2367873;53;20969;-62
2021/04/05 00:53:08;;;;;;;4.47;1.62;;;8.50;38.10;;;;;;2619515;52;20977;-62
2021/04/05 00:55:37;;;;;;;4.30;1.95;;;8.50;37.90;;;;;;2367611;53;20944;-61
2021/04/05 00:58:03;;;;;;;3.40;1.50;;;8.50;37.90;;;;;;2367477;53;21355;-61
2021/04/05 01:00:41;;;;;;;3.65;1.45;;;8.50;37.90;;;;;;2367648;53;20893;-61
2021/04/05 01:03:08;;;;;;;3.70;1.37;;;8.50;38.10;;;;;;2367913;53;21386;-61
2021/04/05 01:05:35;;;;;;;4.90;1.60;;;8.50;37.90;;;;;;2371350;53;20998;-61
2021/04/05 01:08:03;;;;;;;5.65;1.70;;;8.40;37.80;;;;;;2596212;52;21446;-61
2021/04/05 01:10:29;;;;;;;3.50;1.30;;;8.40;37.90;;;;;;2371376;53;21952;-61
2021/04/05 01:12:55;;;;;;;5.30;1.52;;;8.40;37.90;;;;;;2603396;52;21027;-61
2021/04/05 01:15:21;;;;;;;4.15;1.40;;;8.30;37.90;;;;;;2356748;53;21723;-61
2021/04/05 01:17:48;;;;;;;4.62;1.48;;;8.30;37.90;;;;;;2619702;52;20913;-62
2021/04/05 01:20:16;;;;;;;5.72;1.50;;;8.30;38.00;;;;;;2619670;52;20926;-61
2021/04/05 01:22:43;;;;;;;2.90;1.30;;;8.20;37.80;;;;;;2367760;53;20957;-61
2021/04/05 01:25:11;;;;;;;3.65;1.45;;;8.20;37.80;;;;;;2367992;53;20953;-61
2021/04/05 01:27:38;;;;;;;3.55;1.30;;;8.10;37.70;;;;;;2619366;52;21302;-61
2021/04/05 01:30:27;;;;;;;2.78;1.00;;;8.10;37.80;;;;;;2357349;53;21424;-61
2021/04/05 01:33:55;;;;;;;3.40;1.30;;;8.00;37.90;;;;;;2618345;52;20941;-61
2021/04/05 01:36:22;;;;;;;2.50;1.10;;;8.00;38.00;;;;;;2369594;53;20961;-61
2021/04/05 01:39:05;;;;;;;3.03;1.30;;;7.90;37.60;;;;;;2598351;52;20981;-62
2021/04/05 01:41:31;;;;;;;3.95;1.42;;;7.80;37.90;;;;;;2340185;54;21078;-62
2021/04/05 01:43:59;;;;;;;3.45;1.20;;;7.80;37.70;;;;;;2612325;52;20945;-61
2021/04/05 01:46:27;;;;;;;3.17;1.20;;;7.70;37.90;;;;;;2367957;53;21017;-61
2021/04/05 01:48:58;;;;;;;3.95;1.23;;;7.70;38.00;;;;;;2619304;52;20925;-61
2021/04/05 01:51:24;;;;;;;3.58;1.60;;;7.60;38.00;;;;;;2367439;53;20917;-61
2021/04/05 01:53:52;;;;;;;3.12;1.40;;;7.60;38.20;;;;;;2619437;52;20902;-61
2021/04/05 01:56:18;;;;;;;2.87;1.23;;;7.60;38.50;;;;;;2368222;53;20925;-61
2021/04/05 01:58:57;;;;;;;5.03;1.80;;;7.50;38.50;;;;;;2619200;52;21410;-61
2021/04/05 02:01:32;;;;;;;3.47;1.55;;;7.50;38.90;;;;;;2603924;52;20934;-61
2021/04/05 02:03:58;;;;;;;4.25;1.60;;;7.50;38.80;;;;;;2612656;52;20941;-61
2021/04/05 02:06:28;;;;;;;4.85;1.37;;;7.40;38.60;;;;;;2596233;52;20959;-61
2021/04/05 02:08:55;;;;;;;3.30;1.50;;;7.40;38.70;;;;;;2618785;52;20941;-61
2021/04/05 02:11:36;;;;;;;3.50;1.62;;;7.40;38.60;;;;;;2367866;53;20976;-61
2021/04/05 02:14:04;;;;;;;3.03;1.40;;;7.30;38.80;;;;;;2351681;54;20969;-62
2021/04/05 02:16:30;;;;;;;4.32;1.62;;;7.30;38.60;;;;;;2352140;53;20898;-61
2021/04/05 02:18:58;;;;;;;3.72;1.42;;;7.20;38.50;;;;;;2367497;53;20913;-61
2021/04/05 02:21:25;;;;;;;3.60;1.50;;;7.20;38.60;;;;;;2619150;52;21795;-61
2021/04/05 02:23:53;;;;;;;3.25;1.35;;;7.10;38.60;;;;;;2367692;53;20965;-62
2021/04/05 02:26:21;;;;;;;4.90;1.20;;;7.10;38.70;;;;;;2367719;53;20925;-61
2021/04/05 02:28:49;;;;;;;4.80;1.42;;;7.00;38.70;;;;;;2618895;52;21005;-61
2021/04/05 02:31:22;;;;;;;4.22;1.27;;;7.00;38.80;;;;;;2370520;53;20897;-61
2021/04/05 02:33:50;;;;;;;2.60;1.10;;;6.90;38.70;;;;;;2598724;52;20994;-61
2021/04/05 02:36:18;;;;;;;3.85;1.40;;;6.90;38.80;;;;;;2367661;53;20917;-61
2021/04/05 02:38:49;;;;;;;3.65;1.17;;;6.90;39.00;;;;;;2619085;52;20974;-61
2021/04/05 02:41:16;;;;;;;3.50;1.20;;;6.90;39.10;;;;;;2359469;53;20957;-61
2021/04/05 02:43:42;;;;;;;3.00;1.08;;;6.80;39.00;;;;;;2612568;52;21517;-61
2021/04/05 02:46:18;;;;;;;2.87;1.33;;;6.80;39.10;;;;;;2596460;52;20936;-61
2021/04/05 02:48:48;;;;;;;3.97;1.40;;;6.80;39.30;;;;;;2367271;53;20945;-61
2021/04/05 02:51:14;;;;;;;5.28;1.40;;;6.80;39.20;;;;;;2366102;53;20954;-61
2021/04/05 02:54:13;;;;;;;4.72;1.67;;;6.60;39.10;;;;;;2602019;52;20962;-61
2021/04/05 02:56:51;;;;;;;3.45;1.40;;;6.80;40.60;;;;;;2354340;53;21643;-61
2021/04/05 02:59:23;;;;;;;4.30;1.60;;;6.70;39.40;;;;;;2597589;52;21407;-61
2021/04/05 03:01:53;;;;;;;3.55;1.50;;;6.70;39.40;;;;;;2367303;53;20925;-61
2021/04/05 03:04:19;;;;;;;3.78;1.40;;;6.70;39.50;;;;;;2599520;52;20973;-61
2021/04/05 03:06:49;;;;;;;4.37;1.50;;;6.70;39.50;;;;;;2361768;53;20982;-61
2021/04/05 03:09:16;;;;;;;3.75;1.42;;;6.60;39.40;;;;;;2591319;53;21039;-61
2021/04/05 03:11:44;;;;;;;2.92;1.20;;;6.60;39.50;;;;;;2357366;53;20959;-61
2021/04/05 03:14:10;;;;;;;5.00;1.48;;;6.60;39.50;;;;;;2353749;53;20982;-61
2021/04/05 03:16:38;;;;;;;4.20;1.20;;;6.60;39.50;;;;;;2367724;53;20929;-61
2021/04/05 03:19:04;;;;;;;3.58;1.48;;;6.60;39.50;;;;;;2367641;53;20988;-61
2021/04/05 03:21:31;;;;;;;2.97;1.15;;;6.50;39.50;;;;;;2367570;53;21027;-61
2021/04/05 03:24:00;;;;;;;5.65;1.60;;;6.50;39.60;;;;;;2618687;52;20933;-61
2021/04/05 03:26:27;;;;;;;5.40;1.70;;;6.50;39.80;;;;;;2594739;52;20962;-61
2021/04/05 03:28:54;;;;;;;4.10;1.37;;;6.50;39.80;;;;;;2604299;52;20998;-61
2021/04/05 03:31:22;;;;;;;3.42;1.60;;;6.50;39.80;;;;;;2601649;52;21355;-60
2021/04/05 03:34:52;;;;;;;4.35;2.03;;;6.50;39.90;;;;;;2595767;52;20930;-61
2021/04/05 03:37:18;;;;;;;4.40;1.80;;;6.50;40.70;;;;;;2359951;53;20939;-61
2021/04/05 03:39:48;;;;;;;3.35;1.37;;;6.50;40.00;;;;;;2598521;52;20914;-61
2021/04/05 03:42:16;;;;;;;3.85;1.52;;;6.40;40.00;;;;;;2363858;53;20901;-61
2021/04/05 03:48:24;;;;;;;4.18;1.45;;;6.40;40.00;;;;;;2619528;52;20937;-61
2021/04/05 03:51:02;;;;;;;4.30;1.40;;;6.40;40.60;;;;;;2365894;53;20974;-61
2021/04/05 03:55:23;;;;;;;3.78;1.70;;;6.40;39.90;;;;;;2597098;52;20958;-61
2021/04/05 03:57:49;;;;;;;3.78;1.50;;;6.40;40.70;;;;;;2595886;52;20958;-61
2021/04/05 04:00:20;;;;;;;4.07;1.70;;;6.40;40.00;;;;;;2607673;52;20962;-61
2021/04/05 04:02:50;;;;;;;3.60;1.55;;;6.40;40.20;;;;;;2608420;52;20908;-61
2021/04/05 04:05:43;;;;;;;3.58;1.50;;;6.30;40.20;;;;;;2619649;52;20889;-61
2021/04/05 04:08:27;;;;;;;4.20;1.90;;;6.30;40.30;;;;;;2330364;54;21841;-61
2021/04/05 04:10:55;;;;;;;4.35;1.70;;;6.30;40.40;;;;;;2591254;53;21013;-61
2021/04/05 04:13:21;;;;;;;4.32;1.60;;;6.30;40.50;;;;;;2352893;53;21010;-62
2021/04/05 04:15:49;;;;;;;4.75;1.60;;;6.40;40.60;;;;;;2592662;52;20977;-61
2021/04/05 04:18:18;;;;;;;3.58;1.60;;;6.40;40.70;;;;;;2344208;53;20945;-61
2021/04/05 04:20:46;;;;;;;3.33;1.30;;;6.40;40.80;;;;;;2344489;53;20924;-62
2021/04/05 04:23:12;;;;;;;5.53;1.80;;;6.40;40.90;;;;;;2592427;53;21027;-61
2021/04/05 04:25:40;;;;;;;4.15;1.35;;;6.50;41.00;;;;;;2590403;53;21801;-62
2021/04/05 04:28:06;;;;;;;3.45;1.40;;;6.50;40.90;;;;;;2591166;53;20965;-61
2021/04/05 04:30:33;;;;;;;3.45;1.48;;;6.50;40.90;;;;;;2590684;53;21691;-62
2021/04/05 04:33:15;;;;;;;4.80;1.90;;;6.60;40.90;;;;;;2347966;53;21516;-61
2021/04/05 04:35:45;;;;;;;3.40;1.70;;;6.60;41.00;;;;;;2564145;53;20941;-62
2021/04/05 04:38:12;;;;;;;3.78;1.80;;;6.60;41.00;;;;;;2338285;53;21851;-61
2021/04/05 04:40:38;;;;;;;4.82;1.83;;;6.60;41.10;;;;;;2343845;54;21425;-61
2021/04/05 04:43:05;;;;;;;4.35;1.80;;;6.60;41.20;;;;;;2590431;53;20992;-61
2021/04/05 04:45:32;;;;;;;4.37;1.92;;;6.70;41.20;;;;;;2582392;53;21538;-61
2021/04/05 04:47:59;;;;;;;3.30;1.48;;;6.80;41.30;;;;;;2337058;54;20917;-61
2021/04/05 04:50:26;;;;;;;4.53;1.70;;;6.80;41.30;;;;;;2345081;53;20959;-62
2021/04/05 04:52:53;;;;;;;5.95;1.77;;;6.90;41.30;;;;;;2342413;53;20952;-61
2021/04/05 04:55:30;;;;;;;3.03;1.40;;;6.90;41.30;;;;;;2346349;53;21492;-62
2021/04/05 04:58:00;;;;;;;4.70;1.67;;;7.00;41.50;;;;;;2343099;53;20921;-60
2021/04/05 05:00:30;;;;;;;3.80;1.60;;;7.00;41.30;;;;;;2591626;52;20993;-61
2021/04/05 05:02:57;;;;;;;3.80;1.60;;;7.00;41.20;;;;;;2591158;52;20944;-62
2021/04/05 05:05:24;;;;;;;4.68;1.70;;;7.10;41.20;;;;;;2590055;52;21015;-61
2021/04/05 05:07:50;;;;;;;4.20;1.83;;;7.10;41.30;;;;;;2587244;52;20905;-62
2021/04/05 05:10:17;;;;;;;4.32;1.90;;;7.10;41.30;;;;;;2344803;54;20979;-61
2021/04/05 05:12:43;;;;;;;4.32;1.92;;;7.20;41.40;;;;;;2362964;53;20937;-61
2021/04/05 05:15:11;;;;;;;5.32;1.90;;;7.30;41.60;;;;;;2359210;53;21001;-61
2021/04/05 05:17:46;;;;;;;3.97;1.60;;;7.30;41.60;;;;;;2360762;53;20922;-61
2021/04/05 05:20:16;;;;;;;5.87;2.17;;;7.50;41.70;;;;;;2592489;52;20977;-61
2021/04/05 05:22:45;;;;;;;;;;;7.50;41.70;;;;;;2368051;53;21011;-62
2021/04/05 05:25:15;;;;;;;5.20;1.42;;;7.60;42.00;;;;;;2363874;53;20130;-61
2021/04/05 05:27:43;;;;;;;6.45;2.12;;;7.70;41.50;;;;;;2356433;53;20981;-61
2021/04/05 05:30:20;;;;;;;4.75;1.83;;;7.80;41.70;;;;;;2367596;53;20949;-62
2021/04/05 05:32:50;;;;;;;5.12;2.03;;;7.90;41.70;;;;;;2367646;53;20968;-61
2021/04/05 05:35:17;;;;;;;4.03;1.85;;;7.90;41.80;;;;;;2367992;53;21721;-62
2021/04/05 05:37:43;;;;;;;5.82;2.15;;;8.00;41.80;;;;;;2368101;53;20889;-61
2021/04/05 05:40:23;;;;;;;6.70;2.42;;;8.10;41.80;;;;;;2357670;53;21396;-61
2021/04/05 05:43:04;;;;;;;5.80;2.70;;;8.30;42.10;;;;;;2306617;55;20974;-61
2021/04/05 05:45:34;;;;;;;5.93;2.10;;;8.30;42.00;;;;;;2587389;53;20988;-61
2021/04/05 05:48:09;;;;;;;5.70;2.12;;;8.50;41.90;;;;;;2596034;52;20916;-61
2021/04/05 05:51:12;;;;;;;6.82;2.40;;;8.60;41.90;;;;;;2325028;54;20996;-61
2021/04/05 05:53:53;;;;;;;4.18;2.03;;;8.70;41.90;;;;;;2323802;53;20949;-61
2021/04/05 05:56:48;;;;;;;5.87;1.75;;;8.80;41.70;;;;;;2578457;53;21461;-61
2021/04/05 05:59:32;;;;;;;7.75;2.10;;;8.90;41.70;;;;;;2341674;54;20913;-61
2021/04/05 06:06:18;;;;;;;5.18;1.90;;;9.00;41.60;;;;;;2344367;53;20912;-61
2021/04/05 06:09:05;;;;;;;7.85;1.85;;;9.20;41.60;;;;;;2346066;53;21023;-62
2021/04/05 06:12:03;;;;;;;5.25;2.28;;;9.30;41.20;;;;;;2591489;52;20928;-61
2021/04/05 06:15:22;;;;;;;5.00;2.33;;;9.40;41.30;;;;;;2346630;53;20911;-61
2021/04/05 06:18:13;;;;;;;4.53;2.30;;;9.50;41.30;;;;;;2348976;53;20949;-62
2021/04/05 06:20:56;;;;;;;5.97;2.20;;;9.60;41.30;;;;;;2348162;54;20965;-62
2021/04/05 06:23:49;;;;;;;7.82;2.30;;;9.60;41.20;;;;;;2558806;53;21416;-62
2021/04/05 06:27:01;;;;;;;;;;;9.70;41.20;;;;;;2593714;52;20981;-61
2021/04/05 06:33:14;;;;;;;6.40;2.40;;;9.80;41.20;;;;;;2588404;52;20069;-62
2021/04/05 06:36:11;;;;;;;6.53;2.35;;;9.90;41.60;;;;;;2588782;52;21384;-62
2021/04/05 06:41:45;;;;;;;5.07;2.37;;;10.10;40.10;;;;;;2356924;53;20890;-62
2021/04/05 06:47:46;;;;;;;4.78;1.90;;;10.10;40.10;;;;;;2591077;52;20962;-62
2021/04/05 06:50:37;;;;;;;4.97;1.85;;;10.30;40.20;;;;;;2345387;54;20968;-62
2021/04/05 06:56:33;;;;;;;5.75;2.35;;;10.60;40.50;;;;;;2344080;53;20883;-62
2021/04/05 07:06:07;;;;;;;5.45;2.10;;;10.90;40.80;;;;;;2345517;54;21000;-62
2021/04/05 07:10:00;;;;;;;5.05;2.28;;;11.10;41.00;;;;;;2591137;52;20901;-62
2021/04/05 07:12:48;;;;;;;6.73;2.27;;;11.80;40.80;;;;;;2366220;53;20937;-62
2021/04/05 07:15:42;;;;;;;6.87;2.22;;;12.10;40.70;;;;;;2618672;52;21171;-63
2021/04/05 07:24:58;;;;;;;4.80;2.37;;;12.30;40.70;;;;;;2367154;53;20942;-62
2021/04/05 07:27:49;;;;;;;5.15;1.92;;;12.90;40.40;;;;;;2610725;52;21570;-62
2021/04/05 07:30:23;;;;;;;6.55;2.70;;;13.10;39.90;;;;;;2357792;53;20948;-62
2021/04/05 07:33:19;;;;;;;6.30;2.65;;;13.20;39.60;;;;;;2350662;53;20909;-62
2021/04/05 07:36:12;;;;;;;5.37;2.60;;;13.20;39.20;;;;;;2344963;53;20964;-62
2021/04/05 07:38:51;;;;;;;5.78;2.20;;;13.30;39.00;;;;;;2590123;53;21529;-63
2021/04/05 07:41:38;;;;;;;7.87;2.87;;;13.30;39.00;;;;;;2344310;53;20921;-63
2021/04/05 07:47:10;;;;;;;5.85;2.45;;;13.30;38.60;;;;;;2343589;53;20988;-63
2021/04/05 07:49:55;;;;;;;3.97;1.85;;;13.40;38.70;;;;;;2343828;53;20965;-63
2021/04/05 07:52:27;;;;;;;5.75;2.60;;;13.40;38.50;;;;;;2343834;53;20972;-63
2021/04/05 07:54:53;;;;;;;4.90;2.17;;;13.40;38.50;;;;;;2347245;53;20972;-62
2021/04/05 07:57:57;;;;;;;6.85;2.92;;;13.40;38.50;;;;;;2589374;53;20987;-62
2021/04/05 08:03:43;;;;;;;10.02;3.60;;;13.50;38.60;;;;;;2590946;53;20939;-63
2021/04/05 08:06:11;;;;;;;7.50;3.42;;;13.50;38.30;;;;;;2591337;53;21021;-62
2021/04/05 08:08:58;;;;;;;12.48;4.00;;;13.50;38.10;;;;;;2344089;53;20944;-63
2021/04/05 08:15:46;;;;;;;8.93;3.55;;;13.50;37.90;;;;;;2590549;53;20996;-62
2021/04/05 08:18:25;;;;;;;8.63;3.33;;;13.50;38.10;;;;;;2346956;53;20936;-62
2021/04/05 08:23:34;;;;;;;8.00;3.35;;;13.50;38.10;;;;;;2589394;53;20999;-62
2021/04/05 08:26:36;;;;;;;8.07;3.40;;;13.50;38.30;;;;;;2344290;53;20932;-62
2021/04/05 08:29:29;;;;;;;6.68;3.10;;;13.60;38.50;;;;;;2562801;53;20991;-62
2021/04/05 08:33:41;;;;;;;7.28;3.40;;;13.70;38.80;;;;;;2343878;53;21021;-63
2021/04/05 08:36:34;;;;;;;6.87;3.10;;;13.80;38.80;;;;;;2590915;53;21082;-63
2021/04/05 08:39:12;;;;;;;5.85;3.17;;;14.00;39.40;;;;;;2586494;53;21011;-63
2021/04/05 08:42:07;;;;;;;6.28;2.85;;;14.20;39.40;;;;;;2321417;54;20954;-62
2021/04/05 08:44:53;;;;;;;9.52;2.87;;;14.40;40.10;;;;;;2343888;54;20949;-63
2021/04/05 08:47:30;;;;;;;6.93;3.37;;;14.60;39.40;;;;;;2346447;54;21019;-63
2021/04/05 08:50:02;;;;;;;6.65;3.35;;;14.80;39.40;;;;;;2340940;53;21713;-63
2021/04/05 08:52:31;;;;;;;6.90;2.90;;;15.00;39.10;;;;;;2344191;54;21596;-63
2021/04/05 08:55:00;;;;;;;6.43;2.90;;;15.10;39.00;;;;;;2590371;52;20963;-63
2021/04/05 08:57:35;;;;;;;7.68;2.80;;;15.20;38.70;;;;;;2344535;54;20960;-63
2021/04/05 09:00:10;;;;;;;5.90;2.53;;;15.30;38.50;;;;;;2343852;53;21005;-63
2021/04/05 09:02:37;;;;;;;7.65;3.35;;;15.40;38.60;;;;;;2588680;52;21390;-63
2021/04/05 09:05:24;;;;;;;7.05;3.20;;;15.40;38.30;;;;;;2367412;53;20890;-63
2021/04/05 09:08:23;;;;;;;7.07;3.05;;;15.50;38.10;;;;;;2368870;53;21378;-63
2021/04/05 09:11:01;;;;;;;8.95;3.17;;;15.60;38.20;;;;;;2603206;52;20894;-63
2021/04/05 09:13:35;;;;;;;6.12;3.05;;;15.60;38.00;;;;;;2605458;52;20954;-63
2021/04/05 09:19:52;;;;;;;6.18;2.95;;;15.60;38.00;;;;;;2355785;53;20902;-63
2021/04/05 09:24:29;;;;;;;8.57;3.40;;;15.70;37.80;;;;;;2618773;52;20957;-63
2021/04/05 09:28:37;;;;;;;8.68;3.58;;;15.90;37.60;;;;;;2366451;53;20909;-62
2021/04/05 09:36:34;;;;;;;6.15;3.05;;;16.00;37.60;;;;;;2362489;53;20958;-63
2021/04/05 09:44:02;;;;;;;7.78;3.60;;;16.60;38.20;;;;;;2551964;52;1729030;-63
2021/04/05 09:46:56;;;;;;;7.00;3.00;;;17.00;38.00;;;;;;2618153;52;20945;-65
2021/04/05 09:56:13;;;;;;;7.32;3.20;;;17.50;37.60;;;;;;2618863;52;20933;-65
2021/04/05 09:59:01;;;;;;;6.72;2.95;;;17.70;37.80;;;;;;2367294;53;20930;-67
2021/04/05 10:01:29;;;;;;;6.47;2.65;;;17.90;37.70;;;;;;2350141;53;21006;-66
2021/04/05 10:04:02;;;;;;;8.25;2.78;;;18.10;37.80;;;;;;2617711;52;20965;-67
2021/04/05 10:06:33;;;;;;;6.50;2.97;;;18.30;37.60;;;;;;2367057;53;21474;-67
2021/04/05 10:08:59;;;;;;;9.98;3.17;;;18.50;37.50;;;;;;2618109;52;21426;-68
2021/04/05 10:11:29;;;;;;;7.72;3.33;;;18.60;37.20;;;;;;2366941;53;20933;-66
2021/04/05 10:14:05;;;;;;;6.32;3.30;;;18.70;37.00;;;;;;2366377;53;20954;-69
2021/04/05 10:16:32;;;;;;;7.62;3.42;;;18.80;36.60;;;;;;2618388;52;20974;-68
2021/04/05 10:19:16;;;;;;;7.25;3.53;;;19.00;36.50;;;;;;2368023;53;21904;-66
2021/04/05 10:21:47;;;;;;;9.25;3.53;;;19.00;35.90;;;;;;2334472;54;20918;-67
2021/04/05 10:24:14;;;;;;;7.05;2.92;;;19.10;36.10;;;;;;2619356;52;20886;-68
2021/04/05 10:26:41;;;;;;;8.35;3.35;;;19.10;35.90;;;;;;2618598;52;20909;-66
2021/04/05 10:29:11;;;;;;;10.65;5.28;;;19.10;35.50;;;;;;2618232;52;20886;-65
2021/04/05 10:31:38;;;;;;;10.93;4.70;;;19.10;35.10;;;;;;2366398;53;21286;-66
2021/04/05 10:34:06;;;;;;;9.85;5.12;;;19.10;35.00;;;;;;2351908;53;21766;-65
2021/04/05 10:36:42;;;;;;;12.52;5.00;;;19.10;35.00;;;;;;2618793;52;21033;-65
2021/04/05 10:39:11;;;;;;;9.70;4.43;;;19.00;34.40;;;;;;2366637;53;20924;-66
2021/04/05 10:41:40;;;;;;;13.57;4.72;;;19.00;34.20;;;;;;2367385;53;20966;-65
2021/04/05 10:44:06;;;;;;;9.70;4.15;;;18.90;33.30;;;;;;2618244;52;22183;-63
2021/04/05 10:46:41;;;;;;;10.75;4.65;;;18.80;33.40;;;;;;2366927;53;20983;-66
2021/04/05 10:49:16;;;;;;;11.00;4.57;;;18.80;32.80;;;;;;2602746;52;20926;-64
2021/04/05 10:51:53;;;;;;;7.50;3.65;;;18.60;32.50;;;;;;2612186;52;20894;-63
2021/04/05 10:55:20;;;;;;;9.23;3.47;;;18.50;32.80;;;;;;2613101;52;21010;-63
2021/04/05 10:58:00;;;;;;;10.55;3.92;;;18.50;33.10;;;;;;2365009;53;21293;-65
2021/04/05 11:00:38;;;;;;;12.93;4.65;;;18.50;32.90;;;;;;2359319;53;20942;-63
2021/04/05 11:03:20;;;;;;;7.18;3.85;;;18.50;32.30;;;;;;2360378;53;20910;-65
2021/04/05 11:05:49;;;;;;;8.63;4.00;;;18.60;32.70;;;;;;2370777;53;21483;-66
2021/04/05 11:08:21;;;;;;;8.75;3.95;;;18.60;32.80;;;;;;2351823;53;20902;-63
2021/04/05 11:10:48;;;;;;;8.13;3.70;;;18.70;32.10;;;;;;2370664;53;20962;-65
2021/04/05 11:13:20;;;;;;;11.65;4.68;;;18.70;32.40;;;;;;2595538;52;20918;-64
2021/04/05 11:15:46;;;;;;;9.30;3.65;;;18.80;30.90;;;;;;2352143;53;20956;-63
2021/04/05 11:18:16;;;;;;;9.07;3.97;;;18.80;31.40;;;;;;2367076;53;20874;-65
2021/04/05 11:20:42;;;;;;;8.20;3.53;;;18.80;31.30;;;;;;2618387;52;20922;-66
2021/04/05 11:23:14;;;;;;;6.72;3.40;;;18.80;31.50;;;;;;2366943;53;21654;-65
2021/04/05 11:25:42;;;;;;;7.75;3.47;;;18.80;31.30;;;;;;2357873;53;20930;-62
2021/04/05 11:28:10;;;;;;;8.15;3.70;;;18.80;30.80;;;;;;2601383;52;21011;-63
2021/04/05 11:30:38;;;;;;;6.20;3.55;;;18.80;30.50;;;;;;2583543;52;21947;-63
2021/04/05 11:33:08;;;;;;;7.25;3.20;;;18.80;30.00;;;;;;2369658;53;20877;-65
2021/04/05 11:35:35;;;;;;;8.43;3.53;;;18.80;30.00;;;;;;2596275;52;20991;-64
2021/04/05 11:38:12;;;;;;;10.93;3.95;;;18.80;29.80;;;;;;2364741;53;20930;-63
2021/04/05 11:40:41;;;;;;;9.55;3.03;;;18.80;29.60;;;;;;2608788;52;20925;-63
2021/04/05 11:43:18;;;;;;;7.40;2.95;;;18.70;29.70;;;;;;2346987;53;21004;-65
2021/04/05 11:45:46;;;;;;;4.97;2.70;;;18.70;29.60;;;;;;2587811;53;21004;-63
2021/04/05 11:48:18;;;;;;;7.95;3.03;;;18.60;29.60;;;;;;2555855;54;20984;-64
2021/04/05 11:50:44;;;;;;;5.90;3.03;;;18.60;29.60;;;;;;2299073;55;21045;-62
2021/04/05 11:53:35;;;;;;;5.85;3.17;;;18.50;29.70;;;;;;2336773;54;21310;-63
2021/04/05 11:56:29;;;;;;;9.13;4.15;;;18.40;29.40;;;;;;2336923;54;21063;-63
2021/04/05 11:59:18;;;;;;;8.07;3.28;;;18.40;29.40;;;;;;2575385;53;20944;-66
2021/04/05 12:02:05;;;;;;;9.15;3.33;;;18.30;29.40;;;;;;2589827;52;20944;-63
2021/04/05 12:04:38;;;;;;;7.05;2.75;;;18.20;29.50;;;;;;2340817;53;21544;-64
2021/04/05 12:07:16;;;;;;;6.05;3.10;;;18.10;29.60;;;;;;2344269;53;20932;-63
2021/04/05 12:10:05;;;;;;;5.62;2.72;;;18.10;29.50;;;;;;2591309;53;21008;-66
2021/04/05 12:12:35;;;;;;;7.97;3.17;;;18.10;29.80;;;;;;2613510;52;20894;-64
2021/04/05 12:15:04;;;;;;;7.55;2.87;;;18.00;29.80;;;;;;2360041;53;21407;-64
2021/04/05 12:17:32;;;;;;;7.50;3.28;;;18.00;29.80;;;;;;2359329;53;21849;-62
2021/04/05 12:19:59;;;;;;;8.23;3.05;;;18.00;29.80;;;;;;2366913;53;20922;-66
2021/04/05 12:22:29;;;;;;;7.32;3.03;;;18.00;29.80;;;;;;2357623;53;21006;-65
2021/04/05 12:24:59;;;;;;;6.65;2.70;;;18.00;29.70;;;;;;2356036;53;20986;-64
2021/04/05 12:27:32;;;;;;;7.15;3.00;;;18.00;29.80;;;;;;2362293;53;21038;-64
2021/04/05 12:30:01;;;;;;;6.40;2.97;;;18.00;29.60;;;;;;2352279;53;21117;-63
2021/04/05 12:32:28;;;;;;;7.65;3.50;;;18.00;29.70;;;;;;2346790;53;21012;-64
2021/04/05 12:34:58;;;;;;;8.85;3.12;;;18.00;29.60;;;;;;2610791;52;20933;-65
2021/04/05 12:37:25;;;;;;;7.10;2.92;;;18.00;29.80;;;;;;2618977;52;21738;-64
2021/04/05 12:39:53;;;;;;;6.60;2.75;;;18.00;29.80;;;;;;2620652;52;21761;-65
2021/04/05 12:42:22;;;;;;;8.63;2.78;;;17.90;29.80;;;;;;2369129;56;21029;-65
2021/04/05 12:44:58;;;;;;;11.15;3.22;;;17.90;29.90;;;;;;2361437;56;21830;-63
2021/04/05 12:47:35;;;;;;;8.02;2.95;;;17.90;29.90;;;;;;2596398;52;20974;-66
2021/04/05 12:50:07;;;;;;;8.32;3.60;;;17.90;30.00;;;;;;2360190;53;20958;-65
2021/04/05 12:52:37;;;;;;;7.68;2.80;;;17.80;30.00;;;;;;2354241;53;21014;-62
2021/04/05 12:55:08;;;;;;;10.10;3.22;;;17.70;30.00;;;;;;2603863;52;21437;-63
2021/04/05 12:57:35;;;;;;;7.93;2.97;;;17.60;30.10;;;;;;2351870;54;21362;-62
2021/04/05 13:00:23;;;;;;;9.13;2.83;;;17.60;30.30;;;;;;2358101;53;21821;-63
2021/04/05 13:04:55;;;;;;;7.22;3.05;;;17.50;30.30;;;;;;2365288;53;20918;-65
2021/04/05 13:08:30;;;;;;;5.90;2.53;;;17.50;30.40;;;;;;2619315;52;20902;-64
2021/04/05 13:11:01;;;;;;;9.60;3.12;;;17.30;30.60;;;;;;2619700;52;20980;-64
2021/04/05 13:13:29;;;;;;;8.25;3.37;;;17.20;30.40;;;;;;2367944;53;20935;-62
2021/04/05 13:17:30;;;;;;;6.37;3.00;;;17.10;30.50;;;;;;2367662;53;22010;-66
2021/04/05 13:20:00;;;;;;;8.77;3.40;;;17.00;30.70;;;;;;2357526;53;20950;-62
2021/04/05 13:22:27;;;;;;;7.25;3.03;;;16.90;30.70;;;;;;2612239;52;21013;-64
2021/04/05 13:25:02;;;;;;;8.55;3.08;;;16.80;30.80;;;;;;2367687;53;20954;-64
2021/04/05 13:27:29;;;;;;;6.00;2.50;;;16.80;31.00;;;;;;2367536;53;20886;-63
2021/04/05 13:29:57;;;;;;;6.28;2.55;;;16.70;31.00;;;;;;2367199;53;20925;-64
2021/04/05 13:32:30;;;;;;;5.22;2.67;;;16.70;31.30;;;;;;2367953;53;20902;-65
2021/04/05 13:35:02;;;;;;;5.87;2.47;;;16.70;31.40;;;;;;2618895;52;20977;-65
2021/04/05 13:37:29;;;;;;;7.15;2.70;;;16.60;31.40;;;;;;2619203;52;20981;-64
2021/04/05 13:39:55;;;;;;;6.80;2.85;;;16.60;31.30;;;;;;2598315;52;20974;-63
2021/04/05 13:42:25;;;;;;;6.07;2.70;;;16.50;31.20;;;;;;2365491;53;20930;-65
2021/04/05 13:44:53;;;;;;;6.97;2.65;;;16.50;31.30;;;;;;2366854;53;20917;-64
2021/04/05 13:47:26;;;;;;;6.22;2.70;;;16.50;31.30;;;;;;2369991;53;20932;-65
2021/04/05 13:49:58;;;;;;;7.85;2.85;;;16.40;31.30;;;;;;2597350;52;20965;-62
2021/04/05 13:52:25;;;;;;;7.12;3.00;;;16.40;31.40;;;;;;2363077;53;21021;-64
2021/04/05 13:54:53;;;;;;;4.78;2.20;;;16.30;31.40;;;;;;2354893;53;20989;-64
2021/04/05 13:57:20;;;;;;;7.00;2.50;;;16.30;31.40;;;;;;2366846;53;21052;-65
2021/04/05 14:00:06;;;;;;;8.27;3.80;;;16.20;31.40;;;;;;2366119;53;20913;-61
2021/04/05 14:02:35;;;;;;;13.38;4.30;;;16.20;31.70;;;;;;2350017;54;21702;-63
2021/04/05 14:05:03;;;;;;;14.98;5.00;;;16.20;31.70;;;;;;2366941;53;21401;-65
2021/04/05 14:07:35;;;;;;;8.85;4.25;;;16.10;31.80;;;;;;2609035;52;21507;-62
2021/04/05 14:10:04;;;;;;;9.40;4.37;;;16.10;32.00;;;;;;2606200;52;20926;-65
2021/04/05 14:12:33;;;;;;;11.77;4.25;;;16.10;32.10;;;;;;2366193;53;20975;-63
2021/04/05 14:14:59;;;;;;;8.90;4.15;;;16.10;32.10;;;;;;2362655;53;20922;-63
2021/04/05 14:17:37;;;;;;;7.55;3.60;;;16.00;32.20;;;;;;2356439;53;20894;-65
2021/04/05 14:20:11;;;;;;;9.70;3.50;;;16.00;32.40;;;;;;2366339;53;20917;-64
2021/04/05 14:26:27;;;;;;;7.87;3.75;;;16.00;32.40;;;;;;2350720;54;20957;-64
2021/04/05 14:28:57;;;;;;;9.15;4.03;;;15.90;32.50;;;;;;2366389;53;21442;-64
2021/04/05 14:31:34;;;;;;;9.23;3.50;;;15.90;32.40;;;;;;2366393;53;21520;-64
2021/04/05 14:34:17;;;;;;;10.73;3.47;;;15.80;32.30;;;;;;2366721;53;20970;-61
2021/04/05 14:36:43;;;;;;;;;;;15.80;32.40;;;;;;2362697;53;21001;-62
2021/04/05 14:39:27;;;;;;;7.62;3.20;;;15.70;32.40;;;;;;2358289;53;20095;-64
2021/04/05 14:41:55;;;;;;;6.85;2.95;;;15.70;32.30;;;;;;2351418;53;21017;-65
2021/04/05 14:44:43;;;;;;;8.30;3.80;;;15.60;32.30;;;;;;2609353;52;20945;-65
2021/04/05 14:47:14;;;;;;;7.03;3.00;;;15.60;32.50;;;;;;2369725;53;20990;-65
2021/04/05 14:49:40;;;;;;;5.03;2.83;;;15.50;32.50;;;;;;2351484;54;20974;-65
2021/04/05 14:52:06;;;;;;;7.35;3.50;;;15.40;32.50;;;;;;2352055;53;21459;-65